createdAt,value
2019-03-24T00:01:41.232Z,48.69
2019-03-24T00:04:06.065Z,48.72
2019-03-24T00:06:37.205Z,48.61
2019-03-24T00:09:09.262Z,48.79
2019-03-24T00:11:40.289Z,48.78
2019-03-24T00:14:11.261Z,48.93
2019-03-24T00:16:42.285Z,49.16
2019-03-24T00:19:13.298Z,49.18
2019-03-24T00:21:44.281Z,49.31
2019-03-24T00:24:15.295Z,49.43
2019-03-24T00:26:46.329Z,49.35
2019-03-24T00:29:17.317Z,49.39
2019-03-24T00:31:48.355Z,49.44
2019-03-24T00:34:19.343Z,49.60
2019-03-24T00:36:50.377Z,49.58
2019-03-24T00:39:21.585Z,49.56
2019-03-24T00:41:52.560Z,49.58
2019-03-24T00:44:23.577Z,49.50
2019-03-24T00:46:54.561Z,49.59
2019-03-24T00:49:25.586Z,49.67
2019-03-24T00:51:56.570Z,49.64
2019-03-24T00:54:27.592Z,49.66
2019-03-24T00:56:58.563Z,49.90
2019-03-24T00:59:29.641Z,50.04
2019-03-24T01:02:00.689Z,50.15
2019-03-24T01:04:31.680Z,50.09
2019-03-24T01:07:02.707Z,50.33
2019-03-24T01:09:33.793Z,50.27
2019-03-24T01:12:04.912Z,50.42
2019-03-24T01:14:35.998Z,50.82
2019-03-24T01:17:07.035Z,50.96
2019-03-24T01:19:38.012Z,50.93
2019-03-24T01:22:09.123Z,50.98
2019-03-24T01:24:40.113Z,51.18
2019-03-24T01:27:11.133Z,51.37
2019-03-24T01:29:42.148Z,51.22
2019-03-24T01:32:13.172Z,51.20
2019-03-24T01:34:44.164Z,51.29
2019-03-24T01:37:15.188Z,51.03
2019-03-24T01:39:46.171Z,51.08
2019-03-24T01:42:17.185Z,50.80
2019-03-24T01:44:48.200Z,50.81
2019-03-24T01:47:19.219Z,50.76
2019-03-24T01:49:50.224Z,50.71
2019-03-24T01:52:21.299Z,50.77
2019-03-24T01:54:52.307Z,50.66
2019-03-24T01:57:23.304Z,50.68
2019-03-24T01:59:54.303Z,50.75
2019-03-24T02:02:25.296Z,50.74
2019-03-24T02:04:56.359Z,50.49
2019-03-24T02:07:27.372Z,50.88
2019-03-24T02:09:58.345Z,50.82
2019-03-24T02:12:29.355Z,50.64
2019-03-24T02:15:00.351Z,50.46
2019-03-24T02:17:31.376Z,50.43
2019-03-24T02:20:02.355Z,50.48
2019-03-24T02:22:33.337Z,50.53
2019-03-24T02:25:04.494Z,50.50
2019-03-24T02:27:35.470Z,50.49
2019-03-24T02:30:07.809Z,50.63
2019-03-24T02:32:38.792Z,50.76
2019-03-24T02:35:09.953Z,50.89
2019-03-24T02:37:40.981Z,50.96
2019-03-24T02:40:12.170Z,50.93
2019-03-24T02:42:43.207Z,51.07
2019-03-24T02:45:14.564Z,51.18
2019-03-24T02:47:45.607Z,51.19
2019-03-24T02:50:16.931Z,51.30
2019-03-24T02:52:48.047Z,51.12
2019-03-24T02:55:19.123Z,51.35
2019-03-24T02:57:50.094Z,51.47
2019-03-24T03:00:21.168Z,51.60
2019-03-24T03:02:52.195Z,51.62
2019-03-24T03:05:23.171Z,51.61
2019-03-24T03:07:54.194Z,51.78
2019-03-24T03:10:25.226Z,51.86
2019-03-24T03:12:56.191Z,51.94
2019-03-24T03:15:27.316Z,51.99
2019-03-24T03:17:58.317Z,52.03
2019-03-24T03:20:29.281Z,52.16
2019-03-24T03:23:00.318Z,52.45
2019-03-24T03:25:31.263Z,52.43
2019-03-24T03:28:02.378Z,52.60
2019-03-24T03:30:33.350Z,52.83
2019-03-24T03:33:04.377Z,53.08
2019-03-24T03:35:35.406Z,53.23
2019-03-24T03:38:06.525Z,53.25
2019-03-24T03:40:37.502Z,53.28
2019-03-24T03:43:08.762Z,53.48
2019-03-24T03:45:39.776Z,53.57
2019-03-24T03:48:10.791Z,53.62
2019-03-24T03:50:41.769Z,54.56
2019-03-24T03:53:12.749Z,53.95
2019-03-24T03:55:43.881Z,54.84
2019-03-24T03:58:14.896Z,54.61
2019-03-24T04:00:45.876Z,54.51
2019-03-24T04:03:16.860Z,54.77
2019-03-24T04:05:47.905Z,54.91
2019-03-24T04:08:18.874Z,55.33
2019-03-24T04:10:49.910Z,55.14
2019-03-24T04:13:20.931Z,55.01
2019-03-24T04:15:51.927Z,54.93
2019-03-24T04:18:22.942Z,54.90
2019-03-24T04:20:53.934Z,54.88
2019-03-24T04:23:24.955Z,54.89
2019-03-24T04:25:55.945Z,54.99
2019-03-24T04:28:26.972Z,55.01
2019-03-24T04:30:57.947Z,55.04
2019-03-24T04:33:28.981Z,55.20
2019-03-24T04:35:59.965Z,55.25
2019-03-24T04:38:31.033Z,55.46
2019-03-24T04:41:02.033Z,56.18
2019-03-24T04:43:33.061Z,56.46
2019-03-24T04:46:04.093Z,56.45
2019-03-24T04:48:35.081Z,56.44
2019-03-24T04:51:06.129Z,56.36
2019-03-24T04:53:37.117Z,57.34
2019-03-24T04:56:08.099Z,57.68
2019-03-24T04:58:39.120Z,57.77
2019-03-24T05:01:10.108Z,57.34
2019-03-24T05:03:41.143Z,57.17
2019-03-24T05:06:12.433Z,56.93
2019-03-24T05:08:43.560Z,57.26
2019-03-24T05:11:14.552Z,56.91
2019-03-24T05:13:45.585Z,56.50
2019-03-24T05:16:16.610Z,56.75
2019-03-24T05:18:47.636Z,56.21
2019-03-24T05:21:18.628Z,56.07
2019-03-24T05:23:49.665Z,55.21
2019-03-24T05:26:20.643Z,54.99
2019-03-24T05:28:51.672Z,54.81
2019-03-24T05:31:22.658Z,54.33
2019-03-24T05:33:53.703Z,53.48
2019-03-24T05:36:24.700Z,53.38
2019-03-24T05:38:55.732Z,53.41
2019-03-24T05:41:26.767Z,52.58
2019-03-24T05:43:57.795Z,52.01
2019-03-24T05:46:28.794Z,51.18
2019-03-24T05:49:00.331Z,50.83
2019-03-24T05:51:31.331Z,49.82
2019-03-24T05:54:02.372Z,49.69
2019-03-24T05:56:33.405Z,48.57
2019-03-24T05:59:04.434Z,48.63
2019-03-24T06:01:35.427Z,47.93
2019-03-24T06:04:06.457Z,47.96
2019-03-24T06:06:37.393Z,46.77
2019-03-24T06:09:08.661Z,46.83
2019-03-24T06:11:39.613Z,46.78
2019-03-24T06:14:10.595Z,45.81
2019-03-24T06:16:41.546Z,44.95
2019-03-24T06:19:12.556Z,44.81
2019-03-24T06:21:43.497Z,44.99
2019-03-24T06:24:14.692Z,44.78
2019-03-24T06:26:45.681Z,44.85
2019-03-24T06:29:16.686Z,44.22
2019-03-24T06:31:47.634Z,44.39
2019-03-24T06:34:18.636Z,43.92
2019-03-24T06:36:49.589Z,44.54
2019-03-24T06:39:20.537Z,43.39
2019-03-24T06:41:51.521Z,42.40
2019-03-24T06:44:22.474Z,43.14
2019-03-24T06:46:53.475Z,42.53
2019-03-24T06:49:24.424Z,41.71
2019-03-24T06:51:55.372Z,41.27
2019-03-24T06:54:26.427Z,40.91
2019-03-24T06:56:57.377Z,41.18
2019-03-24T06:59:28.307Z,40.71
2019-03-24T07:01:59.294Z,41.75
2019-03-24T07:04:30.235Z,41.23
2019-03-24T07:07:01.231Z,40.62
2019-03-24T07:09:32.175Z,40.82
2019-03-24T07:12:03.221Z,40.81
2019-03-24T07:14:34.176Z,41.13
2019-03-24T07:17:05.273Z,41.10
2019-03-24T07:19:36.221Z,41.47
2019-03-24T07:22:07.365Z,40.35
2019-03-24T07:24:38.344Z,40.51
2019-03-24T07:27:09.338Z,40.47
2019-03-24T07:29:41.294Z,40.40
2019-03-24T07:32:12.263Z,40.98
2019-03-24T07:34:43.253Z,40.37
2019-03-24T07:37:14.310Z,39.98
2019-03-24T07:39:45.321Z,40.51
2019-03-24T07:42:16.315Z,40.62
2019-03-24T07:44:47.274Z,40.13
2019-03-24T07:47:18.373Z,39.80
2019-03-24T07:49:49.369Z,39.48
2019-03-24T07:52:20.378Z,40.21
2019-03-24T07:54:51.378Z,39.26
2019-03-24T07:57:22.325Z,39.08
2019-03-24T07:59:53.329Z,39.31
2019-03-24T08:02:24.606Z,39.34
2019-03-24T08:04:55.605Z,39.32
2019-03-24T08:07:26.546Z,39.22
2019-03-24T08:09:57.492Z,39.40
2019-03-24T08:12:28.489Z,39.00
2019-03-24T08:15:00.057Z,38.76
2019-03-24T08:17:31.207Z,38.38
2019-03-24T08:20:02.163Z,38.08
2019-03-24T08:22:33.146Z,37.92
2019-03-24T08:25:04.338Z,38.23
2019-03-24T08:27:35.299Z,37.64
2019-03-24T08:30:06.764Z,37.33
2019-03-24T08:32:37.761Z,36.92
2019-03-24T08:35:09.401Z,36.50
2019-03-24T08:37:40.402Z,37.09
2019-03-24T08:40:11.554Z,37.63
2019-03-24T08:42:42.657Z,37.54
2019-03-24T08:45:16.909Z,37.12
2019-03-24T08:47:47.896Z,37.28
2019-03-24T08:50:18.899Z,36.87
2019-03-24T08:52:49.863Z,36.83
2019-03-24T08:55:20.870Z,36.78
2019-03-24T08:57:51.871Z,36.32
2019-03-24T09:00:30.470Z,35.41
2019-03-24T09:02:55.577Z,35.75
2019-03-24T09:05:26.568Z,35.96
2019-03-24T09:07:57.505Z,36.25
2019-03-24T09:10:28.501Z,35.95
2019-03-24T09:12:59.490Z,35.32
2019-03-24T09:15:30.479Z,34.76
2019-03-24T09:18:01.530Z,35.10
2019-03-24T09:20:41.170Z,34.57
2019-03-24T09:23:05.304Z,34.60
2019-03-24T09:25:36.457Z,34.62
2019-03-24T09:28:09.224Z,34.25
2019-03-24T09:30:40.619Z,33.74
2019-03-24T09:33:11.672Z,34.02
2019-03-24T09:35:42.679Z,33.84
2019-03-24T09:38:13.648Z,33.55
2019-03-24T09:40:44.648Z,33.79
2019-03-24T09:43:15.609Z,34.16
2019-03-24T09:45:46.556Z,33.99
2019-03-24T09:48:17.548Z,33.80
2019-03-24T09:50:48.489Z,33.64
2019-03-24T09:53:19.488Z,33.50
2019-03-24T09:55:50.479Z,33.26
2019-03-24T09:58:21.424Z,33.26
2019-03-24T10:00:52.390Z,33.23
2019-03-24T10:03:23.386Z,33.10
2019-03-24T10:05:54.328Z,33.04
2019-03-24T10:08:25.314Z,32.95
2019-03-24T10:10:56.302Z,32.69
2019-03-24T10:13:27.301Z,32.71
2019-03-24T10:15:58.241Z,32.89
2019-03-24T10:18:29.186Z,33.04
2019-03-24T10:21:00.172Z,32.48
2019-03-24T10:23:31.130Z,32.67
2019-03-24T10:26:02.145Z,31.78
2019-03-24T10:28:33.069Z,31.74
2019-03-24T10:31:04.153Z,31.95
2019-03-24T10:33:35.143Z,32.12
2019-03-24T10:36:06.236Z,32.03
2019-03-24T10:38:37.172Z,32.22
2019-03-24T10:41:08.126Z,32.50
2019-03-24T10:43:39.126Z,32.33
2019-03-24T10:46:10.105Z,31.95
2019-03-24T10:48:41.062Z,31.82
2019-03-24T10:51:11.999Z,32.21
2019-03-24T10:53:42.979Z,31.51
2019-03-24T10:56:13.927Z,31.59
2019-03-24T10:58:44.920Z,31.92
2019-03-24T11:01:15.917Z,31.06
2019-03-24T11:03:46.866Z,31.45
2019-03-24T11:06:17.809Z,31.33
2019-03-24T11:08:48.792Z,30.86
2019-03-24T11:11:19.735Z,31.14
2019-03-24T11:13:50.719Z,31.14
2019-03-24T11:16:21.660Z,30.61
2019-03-24T11:18:52.640Z,30.46
2019-03-24T11:21:23.580Z,30.61
2019-03-24T11:23:54.557Z,30.41
2019-03-24T11:26:25.500Z,30.48
2019-03-24T11:28:56.482Z,30.54
2019-03-24T11:31:27.475Z,30.15
2019-03-24T11:33:58.430Z,29.70
2019-03-24T11:36:29.380Z,29.74
2019-03-24T11:39:00.367Z,30.29
2019-03-24T11:41:31.356Z,30.01
2019-03-24T11:44:02.305Z,29.71
2019-03-24T11:46:33.323Z,29.76
2019-03-24T11:49:04.268Z,29.42
2019-03-24T11:51:35.256Z,29.31
2019-03-24T11:54:06.345Z,28.91
2019-03-24T11:56:37.335Z,28.54
2019-03-24T11:59:08.288Z,28.38
2019-03-24T12:01:39.284Z,28.25
2019-03-24T12:04:10.287Z,28.34
2019-03-24T12:06:41.275Z,28.58
2019-03-24T12:09:12.269Z,28.71
2019-03-24T12:11:43.212Z,28.22
2019-03-24T12:14:14.191Z,28.25
2019-03-24T12:16:45.139Z,27.97
2019-03-24T12:19:16.126Z,27.41
2019-03-24T12:21:47.123Z,27.60
2019-03-24T12:24:18.057Z,27.10
2019-03-24T12:26:49.013Z,26.88
2019-03-24T12:29:20.005Z,27.10
2019-03-24T12:31:50.956Z,27.29
2019-03-24T12:34:21.951Z,27.76
2019-03-24T12:36:52.952Z,26.55
2019-03-24T12:39:23.906Z,26.41
2019-03-24T12:41:54.932Z,25.92
2019-03-24T12:44:25.893Z,25.86
2019-03-24T12:46:56.883Z,26.18
2019-03-24T12:49:27.831Z,26.30
2019-03-24T12:51:58.776Z,26.57
2019-03-24T12:54:29.719Z,25.41
2019-03-24T12:57:00.825Z,25.29
2019-03-24T12:59:31.758Z,24.65
2019-03-24T13:02:03.694Z,24.60
2019-03-24T13:04:34.724Z,24.45
2019-03-24T13:07:05.820Z,24.23
2019-03-24T13:09:36.771Z,23.82
2019-03-24T13:12:07.720Z,23.81
2019-03-24T13:14:38.665Z,23.99
2019-03-24T13:17:09.613Z,23.73
2019-03-24T13:19:40.605Z,23.61
2019-03-24T13:22:11.546Z,23.45
2019-03-24T13:24:42.523Z,23.66
2019-03-24T13:27:13.476Z,23.75
2019-03-24T13:29:44.458Z,23.77
2019-03-24T13:32:15.438Z,23.90
2019-03-24T13:34:46.381Z,23.89
2019-03-24T13:37:17.372Z,23.68
2019-03-24T13:39:48.327Z,23.24
2019-03-24T13:42:19.286Z,23.28
2019-03-24T13:44:50.321Z,23.38
2019-03-24T13:47:21.283Z,23.35
2019-03-24T13:49:52.276Z,23.10
2019-03-24T13:52:23.224Z,22.98
2019-03-24T13:54:54.208Z,23.57
2019-03-24T13:57:25.154Z,23.12
2019-03-24T13:59:56.136Z,23.17
2019-03-24T14:02:27.086Z,23.41
2019-03-24T14:04:58.089Z,23.58
2019-03-24T14:07:29.035Z,23.40
2019-03-24T14:09:59.983Z,23.53
2019-03-24T14:12:30.924Z,23.99
2019-03-24T14:15:01.875Z,24.00
2019-03-24T14:17:32.919Z,23.99
2019-03-24T14:20:04.008Z,23.50
2019-03-24T14:22:35.065Z,23.46
2019-03-24T14:25:06.713Z,23.31
2019-03-24T14:27:37.761Z,23.69
2019-03-24T14:30:09.856Z,23.36
2019-03-24T14:32:40.854Z,23.71
2019-03-24T14:35:12.048Z,23.56
2019-03-24T14:37:42.994Z,23.87
2019-03-24T14:40:14.487Z,23.39
2019-03-24T14:42:45.507Z,23.66
2019-03-24T14:45:16.700Z,23.72
2019-03-24T14:47:47.706Z,23.70
2019-03-24T14:50:18.755Z,23.48
2019-03-24T14:52:49.709Z,23.71
2019-03-24T14:55:20.701Z,23.78
2019-03-24T14:57:51.759Z,24.22
2019-03-24T15:00:31.382Z,24.08
2019-03-24T15:03:02.371Z,24.37
2019-03-24T15:05:33.420Z,24.43
2019-03-24T15:08:05.739Z,24.53
2019-03-24T15:10:36.751Z,24.44
2019-03-24T15:13:07.976Z,24.33
2019-03-24T15:15:39.069Z,24.67
2019-03-24T15:18:10.102Z,24.72
2019-03-24T15:20:41.135Z,24.47
2019-03-24T15:23:12.125Z,24.69
2019-03-24T15:25:43.112Z,24.74
2019-03-24T15:28:14.208Z,24.56
2019-03-24T15:30:45.250Z,24.63
2019-03-24T15:33:16.326Z,24.81
2019-03-24T15:35:47.354Z,24.69
2019-03-24T15:38:18.327Z,24.69
2019-03-24T15:40:49.799Z,24.60
2019-03-24T15:43:20.779Z,24.64
2019-03-24T15:45:51.803Z,24.50
2019-03-24T15:48:22.783Z,24.67
2019-03-24T15:50:53.770Z,24.63
2019-03-24T15:53:24.789Z,24.47
2019-03-24T15:55:55.779Z,25.07
2019-03-24T15:58:26.816Z,25.37
2019-03-24T16:00:57.812Z,25.59
2019-03-24T16:03:28.860Z,25.73
2019-03-24T16:05:59.845Z,25.89
2019-03-24T16:08:30.879Z,25.99
2019-03-24T16:11:01.970Z,26.01
2019-03-24T16:13:33.013Z,26.20
2019-03-24T16:16:04.036Z,26.39
2019-03-24T16:18:35.060Z,26.54
2019-03-24T16:21:06.058Z,26.83
2019-03-24T16:23:37.095Z,27.12
2019-03-24T16:26:08.137Z,27.44
2019-03-24T16:28:39.132Z,27.58
2019-03-24T16:31:10.175Z,27.68
2019-03-24T16:33:41.404Z,27.84
2019-03-24T16:36:12.429Z,27.82
2019-03-24T16:38:48.797Z,28.11
2019-03-24T16:41:16.132Z,28.60
2019-03-24T16:43:47.123Z,28.82
2019-03-24T16:46:18.250Z,29.00
2019-03-24T16:48:49.285Z,29.06
2019-03-24T16:51:20.271Z,29.11
2019-03-24T16:53:51.349Z,29.27
2019-03-24T16:56:22.343Z,29.32
2019-03-24T16:58:53.369Z,29.54
2019-03-24T17:01:24.511Z,30.07
2019-03-24T17:03:55.492Z,30.07
2019-03-24T17:06:26.485Z,30.20
2019-03-24T17:08:57.524Z,30.40
2019-03-24T17:11:28.512Z,30.49
2019-03-24T17:13:59.558Z,30.70
2019-03-24T17:16:30.539Z,30.53
2019-03-24T17:19:01.532Z,30.56
2019-03-24T17:21:32.561Z,30.65
2019-03-24T17:24:03.594Z,30.81
2019-03-24T17:26:36.023Z,31.00
2019-03-24T17:29:06.986Z,31.10
2019-03-24T17:31:37.992Z,31.29
2019-03-24T17:34:09.047Z,31.78
2019-03-24T17:36:40.342Z,31.93
2019-03-24T17:39:11.369Z,32.34
2019-03-24T17:41:42.366Z,32.42
2019-03-24T17:44:13.417Z,32.56
2019-03-24T17:46:44.406Z,32.98
2019-03-24T17:49:15.411Z,33.48
2019-03-24T17:51:46.452Z,33.50
2019-03-24T17:54:17.493Z,33.47
2019-03-24T17:56:48.507Z,33.53
2019-03-24T17:59:19.598Z,33.42
2019-03-24T18:01:50.597Z,33.41
2019-03-24T18:04:24.772Z,33.50
2019-03-24T18:06:54.348Z,33.94
2019-03-24T18:09:25.361Z,33.73
2019-03-24T18:11:56.395Z,33.65
2019-03-24T18:14:27.399Z,33.72
2019-03-24T18:16:58.468Z,33.80
2019-03-24T18:19:29.505Z,33.81
2019-03-24T18:22:11.102Z,34.21
2019-03-24T18:24:33.254Z,35.04
2019-03-24T18:27:04.290Z,35.53
2019-03-24T18:29:35.338Z,35.57
2019-03-24T18:32:06.348Z,35.61
2019-03-24T18:34:37.342Z,35.56
2019-03-24T18:37:08.471Z,35.42
2019-03-24T18:39:39.506Z,35.48
2019-03-24T18:42:10.642Z,35.51
2019-03-24T18:44:41.642Z,35.46
2019-03-24T18:47:12.682Z,36.18
2019-03-24T18:49:43.730Z,36.28
2019-03-24T18:52:22.684Z,36.73
2019-03-24T18:54:47.673Z,36.60
2019-03-24T18:57:18.722Z,36.76
2019-03-24T18:59:49.818Z,36.91
2019-03-24T19:02:20.867Z,37.01
2019-03-24T19:04:51.868Z,37.23
2019-03-24T19:07:22.884Z,37.36
2019-03-24T19:09:53.930Z,37.46
2019-03-24T19:12:24.976Z,37.43
2019-03-24T19:14:56.014Z,37.72
2019-03-24T19:17:27.001Z,38.03
2019-03-24T19:19:58.039Z,38.12
2019-03-24T19:22:33.562Z,38.62
2019-03-24T19:25:01.745Z,38.59
2019-03-24T19:27:32.834Z,38.87
2019-03-24T19:30:04.083Z,39.15
2019-03-24T19:32:35.336Z,39.41
2019-03-24T19:35:06.981Z,39.20
2019-03-24T19:37:38.048Z,39.29
2019-03-24T19:40:15.185Z,39.48
2019-03-24T19:42:46.158Z,39.81
2019-03-24T19:45:17.199Z,39.65
2019-03-24T19:47:48.215Z,39.87
2019-03-24T19:50:19.308Z,39.77
2019-03-24T19:52:50.436Z,39.87
2019-03-24T19:55:21.442Z,39.81
2019-03-24T19:57:52.449Z,39.95
2019-03-24T20:00:23.592Z,39.84
2019-03-24T20:02:54.584Z,39.94
2019-03-24T20:05:26.977Z,39.87
2019-03-24T20:07:58.085Z,40.33
2019-03-24T20:10:29.115Z,40.23
2019-03-24T20:13:00.113Z,40.46
2019-03-24T20:15:31.204Z,40.56
2019-03-24T20:18:02.193Z,40.83
2019-03-24T20:20:33.222Z,41.21
2019-03-24T20:23:04.348Z,40.94
2019-03-24T20:25:35.475Z,40.91
2019-03-24T20:28:06.613Z,40.97
2019-03-24T20:30:37.605Z,41.05
2019-03-24T20:33:08.654Z,41.56
2019-03-24T20:35:39.659Z,41.42
2019-03-24T20:38:10.700Z,41.96
2019-03-24T20:40:41.742Z,42.42
2019-03-24T20:43:12.838Z,42.70
2019-03-24T20:45:43.881Z,42.91
2019-03-24T20:48:15.048Z,42.97
2019-03-24T20:50:46.182Z,43.30
2019-03-24T20:53:18.316Z,43.00
2019-03-24T20:55:49.756Z,43.10
2019-03-24T20:58:20.762Z,43.23
2019-03-24T21:00:51.910Z,43.55
2019-03-24T21:03:22.954Z,43.59
2019-03-24T21:05:53.963Z,43.62
2019-03-24T21:08:24.971Z,43.66
2019-03-24T21:10:55.971Z,43.96
2019-03-24T21:13:27.030Z,44.09
2019-03-24T21:15:58.023Z,44.07
2019-03-24T21:18:29.055Z,44.26
2019-03-24T21:21:00.097Z,44.22
2019-03-24T21:23:31.133Z,44.17
2019-03-24T21:26:02.226Z,44.13
2019-03-24T21:28:33.259Z,43.82
2019-03-24T21:31:04.254Z,43.87
2019-03-24T21:33:35.281Z,43.79
2019-03-24T21:36:06.508Z,43.85
2019-03-24T21:38:37.501Z,43.95
2019-03-24T21:41:08.630Z,43.79
2019-03-24T21:43:39.625Z,43.64
2019-03-24T21:46:10.654Z,43.75
2019-03-24T21:48:41.653Z,43.62
2019-03-24T21:51:12.676Z,43.79
2019-03-24T21:53:43.705Z,43.65
2019-03-24T21:56:14.741Z,43.78
2019-03-24T21:58:45.728Z,43.71
2019-03-24T22:01:16.779Z,43.69
2019-03-24T22:03:47.798Z,43.42
2019-03-24T22:06:18.841Z,43.60
2019-03-24T22:08:49.884Z,43.55
2019-03-24T22:11:20.891Z,43.98
2019-03-24T22:13:51.928Z,44.02
2019-03-24T22:16:22.959Z,44.13
2019-03-24T22:18:53.956Z,44.05
2019-03-24T22:21:25.090Z,44.16
2019-03-24T22:23:56.078Z,44.34
2019-03-24T22:26:27.108Z,44.16
2019-03-24T22:28:58.137Z,44.42
2019-03-24T22:31:29.135Z,44.52
2019-03-24T22:34:00.174Z,44.39
2019-03-24T22:36:31.172Z,44.18
2019-03-24T22:39:02.206Z,44.06
2019-03-24T22:41:33.249Z,44.31
2019-03-24T22:44:04.242Z,44.35
2019-03-24T22:46:35.285Z,44.45
2019-03-24T22:49:06.435Z,44.36
2019-03-24T22:51:37.434Z,44.39
2019-03-24T22:54:08.451Z,44.88
2019-03-24T22:56:39.522Z,45.12
2019-03-24T22:59:10.534Z,44.54
2019-03-24T23:01:41.632Z,44.43
2019-03-24T23:04:12.658Z,44.17
2019-03-24T23:06:43.682Z,44.20
2019-03-24T23:09:14.674Z,44.17
2019-03-24T23:11:45.705Z,43.86
2019-03-24T23:14:16.744Z,43.86
2019-03-24T23:16:47.744Z,43.92
2019-03-24T23:19:18.737Z,44.04
2019-03-24T23:21:49.741Z,44.22
2019-03-24T23:24:20.736Z,44.34
2019-03-24T23:26:51.773Z,44.45
2019-03-24T23:29:22.766Z,44.64
2019-03-24T23:31:53.805Z,44.86
2019-03-24T23:34:24.818Z,44.80
2019-03-24T23:36:55.847Z,44.62
2019-03-24T23:39:26.838Z,44.72
2019-03-24T23:41:58.060Z,44.70
2019-03-24T23:44:29.053Z,44.70
2019-03-24T23:47:00.094Z,44.71
2019-03-24T23:49:31.130Z,44.69
2019-03-24T23:52:02.131Z,44.55
2019-03-24T23:54:33.169Z,44.24
2019-03-24T23:57:04.165Z,44.29
2019-03-24T23:59:35.190Z,44.23
